Time;durP1;ratioP1;P1;durP2;ratioP2;P2;SDS_P1;SDS_P2;PMS_P1;PMS_P2;Temp;Humidity;BMP_temperature;BMP_pressure;BME280_temperature;BME280_humidity;BME280_pressure;Samples;Min_cycle;Max_cycle;Signal;HPM_P1;HPM_P2
2023/04/07 00:01:55;;;;;;;21.40;19.13;;;7.90;99.90;;;;;;5056160;28;20043;-70
2023/04/07 00:04:20;;;;;;;23.67;19.83;;;7.90;99.90;;;;;;5072534;28;20108;-70
2023/04/07 00:06:46;;;;;;;23.58;20.35;;;8.00;99.90;;;;;;5055790;28;20047;-70
2023/04/07 00:09:12;;;;;;;27.05;21.48;;;8.00;99.90;;;;;;5072622;28;20040;-70
2023/04/07 00:11:37;;;;;;;21.05;18.83;;;7.90;99.90;;;;;;5073532;28;20515;-70
2023/04/07 00:14:03;;;;;;;23.10;20.55;;;7.90;99.90;;;;;;5055670;28;20484;-70
2023/04/07 00:16:29;;;;;;;23.83;20.92;;;7.90;99.90;;;;;;5055559;28;20044;-70
2023/04/07 00:18:54;;;;;;;24.85;20.70;;;8.00;99.90;;;;;;5072210;28;20035;-70
2023/04/07 00:21:20;;;;;;;22.80;20.35;;;8.00;99.90;;;;;;5055759;28;20475;-70
2023/04/07 00:23:46;;;;;;;25.13;20.42;;;7.90;99.90;;;;;;5055800;28;20032;-70
2023/04/07 00:26:12;;;;;;;23.38;20.50;;;8.00;99.90;;;;;;5056304;28;20037;-70
2023/04/07 00:28:38;;;;;;;24.58;21.35;;;7.90;99.90;;;;;;5072024;28;20119;-70
2023/04/07 00:31:03;;;;;;;22.88;20.30;;;7.90;99.90;;;;;;5071944;28;20094;-70
2023/04/07 00:33:29;;;;;;;26.23;21.27;;;7.90;99.90;;;;;;5055269;28;20039;-70
2023/04/07 00:35:57;;;;;;;25.92;21.58;;;8.00;99.90;;;;;;5071990;28;20044;-70
2023/04/07 00:38:23;;;;;;;27.63;22.77;;;8.00;99.90;;;;;;5055148;28;20044;-70
2023/04/07 00:40:48;;;;;;;23.05;20.58;;;8.00;99.90;;;;;;5055315;28;20086;-70
2023/04/07 00:43:14;;;;;;;24.48;21.30;;;7.90;99.90;;;;;;5072123;28;20523;-70
2023/04/07 00:45:40;;;;;;;23.58;20.52;;;7.90;99.90;;;;;;5055168;28;20493;-70
2023/04/07 00:48:06;;;;;;;23.33;20.65;;;7.90;99.90;;;;;;5071842;28;20119;-70
2023/04/07 00:50:31;;;;;;;22.95;20.00;;;7.90;99.90;;;;;;5055036;28;20047;-70
2023/04/07 00:52:57;;;;;;;22.13;19.80;;;7.90;99.90;;;;;;5055113;28;20032;-70
2023/04/07 00:55:23;;;;;;;23.25;20.23;;;8.00;99.90;;;;;;5055002;28;20139;-70
2023/04/07 00:57:49;;;;;;;24.55;19.92;;;7.90;99.90;;;;;;5071480;28;20044;-70
2023/04/07 01:00:15;;;;;;;22.50;19.25;;;7.90;99.90;;;;;;5038318;28;20119;-70
2023/04/07 01:02:46;;;;;;;23.40;20.52;;;7.90;99.90;;;;;;5071708;28;20139;-70
2023/04/07 01:05:17;;;;;;;21.25;18.17;;;7.90;99.90;;;;;;5072016;28;20094;-70
2023/04/07 01:08:24;;;;;;;23.55;21.00;;;7.90;99.90;;;;;;5071712;28;20045;-70
2023/04/07 01:11:05;;;;;;;20.92;18.80;;;8.00;99.90;;;;;;5014309;28;20044;-70
2023/04/07 01:13:41;;;;;;;22.55;20.25;;;8.00;99.90;;;;;;5014583;28;20046;-70
2023/04/07 01:16:12;;;;;;;22.20;18.33;;;7.90;99.90;;;;;;5014563;28;20575;-70
2023/04/07 01:18:39;;;;;;;22.35;19.95;;;8.00;99.90;;;;;;5014283;28;20060;-70
2023/04/07 01:21:14;;;;;;;22.95;19.27;;;8.00;99.90;;;;;;5014163;28;20049;-70
2023/04/07 01:24:10;;;;;;;21.13;18.88;;;8.00;99.90;;;;;;5014542;28;20073;-70
2023/04/07 01:26:37;;;;;;;23.52;19.98;;;8.00;99.90;;;;;;5014467;28;20425;-70
2023/04/07 01:29:05;;;;;;;21.55;19.15;;;8.00;99.90;;;;;;5014207;28;20041;-70
2023/04/07 01:31:32;;;;;;;21.10;18.90;;;8.00;99.90;;;;;;5014178;28;20148;-70
2023/04/07 01:34:01;;;;;;;20.55;18.45;;;8.00;99.90;;;;;;5014382;28;20128;-70
2023/04/07 01:36:28;;;;;;;20.05;17.90;;;8.00;99.90;;;;;;5014186;28;20045;-70
2023/04/07 01:38:54;;;;;;;19.60;17.60;;;8.00;99.90;;;;;;5014185;28;20061;-70
2023/04/07 01:41:22;;;;;;;18.13;16.25;;;8.00;99.90;;;;;;5013960;28;20075;-70
2023/04/07 01:43:48;;;;;;;17.83;16.02;;;8.00;99.90;;;;;;5017599;28;20472;-70
2023/04/07 01:46:14;;;;;;;18.20;16.27;;;8.00;99.90;;;;;;5071506;28;20378;-70
2023/04/07 01:48:41;;;;;;;17.95;16.15;;;8.00;99.90;;;;;;5054559;28;20036;-70
2023/04/07 01:51:07;;;;;;;16.88;15.27;;;7.90;99.90;;;;;;5054476;28;20072;-70
2023/04/07 01:53:36;;;;;;;18.25;16.45;;;8.00;99.90;;;;;;5037908;28;20055;-70
2023/04/07 01:56:02;;;;;;;18.15;16.33;;;8.00;99.90;;;;;;5071217;28;20544;-70
2023/04/07 01:58:28;;;;;;;16.75;15.15;;;7.90;99.90;;;;;;5054520;28;20032;-70
2023/04/07 02:00:54;;;;;;;17.17;15.45;;;8.00;99.90;;;;;;5071038;28;20515;-71
2023/04/07 02:03:27;;;;;;;19.13;17.23;;;8.00;99.90;;;;;;5054415;28;20075;-71
2023/04/07 02:05:56;;;;;;;17.40;15.68;;;8.00;99.90;;;;;;5071167;28;20037;-71
2023/04/07 02:08:25;;;;;;;17.33;15.63;;;8.00;99.90;;;;;;5054582;28;20045;-70
2023/04/07 02:10:53;;;;;;;17.55;15.85;;;7.90;99.90;;;;;;5073788;28;20060;-71
2023/04/07 02:13:20;;;;;;;18.63;16.80;;;8.00;99.90;;;;;;5058176;28;20045;-71
2023/04/07 02:15:47;;;;;;;18.92;16.98;;;8.00;99.90;;;;;;5074824;28;20086;-70
2023/04/07 02:18:14;;;;;;;19.08;17.13;;;8.00;99.90;;;;;;5041145;28;20044;-70
2023/04/07 02:20:41;;;;;;;17.38;15.70;;;8.00;99.90;;;;;;5057736;28;20045;-70
2023/04/07 02:23:07;;;;;;;15.80;14.30;;;8.00;99.90;;;;;;5074378;28;20504;-70
2023/04/07 02:25:33;;;;;;;18.42;16.52;;;8.00;99.90;;;;;;5074665;28;20393;-70
2023/04/07 02:28:00;;;;;;;16.77;15.18;;;8.00;99.90;;;;;;5057700;28;20044;-70
2023/04/07 02:30:26;;;;;;;17.90;16.27;;;7.90;99.90;;;;;;5057828;28;20084;-70
2023/04/07 02:32:53;;;;;;;17.88;16.05;;;8.00;99.90;;;;;;5074251;28;20076;-70
2023/04/07 02:35:19;;;;;;;17.95;16.15;;;8.00;99.90;;;;;;5057517;28;20112;-70
2023/04/07 02:37:45;;;;;;;19.73;17.73;;;8.00;99.90;;;;;;5040797;28;20434;-70
2023/04/07 02:40:11;;;;;;;19.40;17.45;;;8.00;99.90;;;;;;5057159;28;20036;-70
2023/04/07 02:42:37;;;;;;;20.73;18.67;;;8.00;99.90;;;;;;5057423;28;20044;-70
2023/04/07 02:45:03;;;;;;;19.08;17.20;;;8.00;99.90;;;;;;5074275;28;20119;-70
2023/04/07 02:47:29;;;;;;;20.15;18.05;;;8.00;99.90;;;;;;5057298;28;20056;-70
2023/04/07 02:49:55;;;;;;;19.63;17.67;;;8.00;99.90;;;;;;5073923;28;20044;-70
2023/04/07 02:52:21;;;;;;;19.95;17.95;;;8.00;99.90;;;;;;5057504;28;20044;-70
2023/04/07 02:54:46;;;;;;;20.65;18.48;;;8.00;99.90;;;;;;5074101;28;20051;-70
2023/04/07 02:57:13;;;;;;;19.30;17.35;;;8.00;99.90;;;;;;5073772;28;20049;-70
2023/04/07 02:59:39;;;;;;;19.70;17.70;;;8.00;99.90;;;;;;5073977;28;20054;-70
2023/04/07 03:02:04;;;;;;;22.70;20.33;;;8.00;99.90;;;;;;5057283;28;20032;-70
2023/04/07 03:04:30;;;;;;;19.75;17.75;;;8.00;99.90;;;;;;5057245;28;20106;-71
2023/04/07 03:06:56;;;;;;;22.15;19.92;;;8.00;99.90;;;;;;5040333;28;20041;-70
2023/04/07 03:09:22;;;;;;;20.00;17.90;;;8.00;99.90;;;;;;5057059;28;20101;-71
2023/04/07 03:11:48;;;;;;;22.02;19.80;;;8.00;99.90;;;;;;5073523;28;20555;-70
2023/04/07 03:14:15;;;;;;;19.50;17.60;;;8.00;99.90;;;;;;5056796;28;20123;-70
2023/04/07 03:16:40;;;;;;;20.20;17.75;;;8.00;99.90;;;;;;5073444;28;20138;-70
2023/04/07 03:19:07;;;;;;;19.77;17.77;;;8.00;99.90;;;;;;5073344;28;20089;-70
2023/04/07 03:21:33;;;;;;;20.58;18.58;;;7.90;99.90;;;;;;5073122;28;20048;-70
2023/04/07 03:23:59;;;;;;;21.27;19.08;;;8.00;99.90;;;;;;5074824;28;20036;-70
2023/04/07 03:26:25;;;;;;;20.33;18.33;;;8.00;99.90;;;;;;5056559;28;20120;-70
2023/04/07 03:28:50;;;;;;;19.35;17.35;;;7.90;99.90;;;;;;5056804;28;20032;-70
2023/04/07 03:31:16;;;;;;;24.75;21.50;;;7.90;99.90;;;;;;5073360;28;20443;-70
2023/04/07 03:33:41;;;;;;;22.90;20.52;;;7.90;99.90;;;;;;5040205;28;20036;-70
2023/04/07 03:36:07;;;;;;;22.25;19.95;;;7.90;99.90;;;;;;5056423;28;20413;-70
2023/04/07 03:38:33;;;;;;;20.30;18.30;;;8.00;99.90;;;;;;5039690;28;20044;-70
2023/04/07 03:40:58;;;;;;;20.90;18.85;;;8.00;99.90;;;;;;5056444;28;20029;-70
2023/04/07 03:43:24;;;;;;;20.80;18.67;;;8.00;99.90;;;;;;5072893;28;20565;-70
2023/04/07 03:45:52;;;;;;;21.90;19.70;;;8.00;99.90;;;;;;5056222;28;20091;-70
2023/04/07 03:48:17;;;;;;;21.70;19.50;;;8.00;99.90;;;;;;5056111;28;20071;-70
2023/04/07 03:50:45;;;;;;;19.88;17.92;;;8.00;99.90;;;;;;5056336;28;20094;-70
2023/04/07 03:53:13;;;;;;;21.98;19.52;;;8.00;99.90;;;;;;5072949;28;20048;-70
2023/04/07 03:55:39;;;;;;;23.67;20.83;;;8.00;99.90;;;;;;5055965;28;20044;-70
2023/04/07 03:58:05;;;;;;;20.15;18.05;;;8.10;99.90;;;;;;5055957;28;20420;-70
2023/04/07 04:00:32;;;;;;;20.83;18.77;;;8.00;99.90;;;;;;5055904;28;20067;-70
2023/04/07 04:02:58;;;;;;;20.88;18.58;;;8.00;99.90;;;;;;5055889;28;20067;-70
2023/04/07 04:05:24;;;;;;;19.08;17.27;;;8.00;99.90;;;;;;5039163;28;20043;-70
2023/04/07 04:07:52;;;;;;;19.10;17.08;;;8.00;99.90;;;;;;5055764;28;20037;-70
2023/04/07 04:10:19;;;;;;;18.80;16.85;;;7.90;99.90;;;;;;5072504;28;20029;-70
2023/04/07 04:12:46;;;;;;;21.30;19.05;;;7.90;99.90;;;;;;5072589;28;20054;-70
2023/04/07 04:15:12;;;;;;;18.45;16.42;;;7.90;99.90;;;;;;5072498;28;20056;-70
2023/04/07 04:17:37;;;;;;;18.83;16.83;;;8.00;99.90;;;;;;5072353;28;20441;-70
2023/04/07 04:20:04;;;;;;;15.93;14.40;;;7.90;99.90;;;;;;5055602;28;20047;-70
2023/04/07 04:22:30;;;;;;;15.93;14.35;;;7.90;99.90;;;;;;5055424;28;20435;-70
2023/04/07 04:24:55;;;;;;;17.63;15.82;;;7.90;99.90;;;;;;5038899;28;20085;-70
2023/04/07 04:27:21;;;;;;;16.58;14.98;;;7.90;99.90;;;;;;5072188;28;20044;-70
2023/04/07 04:29:47;;;;;;;17.23;15.43;;;7.90;99.90;;;;;;5055253;28;20093;-70
2023/04/07 04:32:13;;;;;;;17.15;15.35;;;7.80;99.90;;;;;;5071553;28;20048;-70
2023/04/07 04:34:40;;;;;;;17.70;15.90;;;7.80;99.90;;;;;;5071999;28;20044;-70
2023/04/07 04:37:06;;;;;;;17.85;16.05;;;7.90;99.90;;;;;;5055295;28;20090;-70
2023/04/07 04:39:32;;;;;;;17.73;16.00;;;7.90;99.90;;;;;;5071775;28;20036;-70
2023/04/07 04:41:58;;;;;;;17.98;16.02;;;7.80;99.90;;;;;;5055246;28;20037;-70
2023/04/07 04:44:23;;;;;;;18.08;15.80;;;7.80;99.90;;;;;;5055283;28;20041;-70
2023/04/07 04:46:49;;;;;;;16.88;15.15;;;7.80;99.90;;;;;;5071887;28;20037;-70
2023/04/07 04:49:15;;;;;;;17.83;16.00;;;7.80;99.90;;;;;;5055134;28;20049;-70
2023/04/07 04:51:41;;;;;;;18.13;16.20;;;7.80;99.90;;;;;;5071957;28;20072;-70
2023/04/07 04:54:07;;;;;;;17.02;15.32;;;7.90;99.90;;;;;;5055080;28;20079;-70
2023/04/07 04:56:33;;;;;;;17.63;15.82;;;7.80;99.90;;;;;;5055112;28;20044;-70
2023/04/07 04:58:58;;;;;;;19.10;17.17;;;7.80;99.90;;;;;;5055034;28;20120;-70
2023/04/07 05:01:24;;;;;;;19.13;17.13;;;7.80;99.90;;;;;;5055285;28;20115;-70
2023/04/07 05:03:49;;;;;;;18.13;16.33;;;7.90;99.90;;;;;;5054941;28;20032;-70
2023/04/07 05:06:15;;;;;;;19.05;17.05;;;7.80;99.90;;;;;;5055188;28;20067;-70
2023/04/07 05:08:41;;;;;;;20.52;18.30;;;7.80;99.90;;;;;;5055203;28;20524;-70
2023/04/07 05:11:06;;;;;;;20.67;18.42;;;7.80;99.90;;;;;;5054901;28;20044;-70
2023/04/07 05:13:32;;;;;;;18.90;16.75;;;7.80;99.90;;;;;;5054940;28;20128;-70
2023/04/07 05:15:57;;;;;;;20.67;18.48;;;7.80;99.90;;;;;;5054909;28;20047;-70
2023/04/07 05:18:23;;;;;;;21.05;18.67;;;7.80;99.90;;;;;;5054837;28;20036;-70
2023/04/07 05:20:49;;;;;;;24.00;20.80;;;7.80;99.90;;;;;;5054961;28;20044;-70
2023/04/07 05:23:14;;;;;;;20.83;18.65;;;7.80;99.90;;;;;;5071534;28;20497;-70
2023/04/07 05:25:40;;;;;;;24.08;20.58;;;7.80;99.90;;;;;;5071493;28;20040;-70
2023/04/07 05:28:06;;;;;;;22.75;20.35;;;7.80;99.90;;;;;;5055077;28;20056;-70
2023/04/07 05:30:31;;;;;;;21.55;19.20;;;7.80;99.90;;;;;;5071337;28;20513;-70
2023/04/07 05:32:57;;;;;;;20.55;18.35;;;7.80;99.90;;;;;;5071424;28;20055;-70
2023/04/07 05:35:23;;;;;;;21.55;19.23;;;7.80;99.90;;;;;;5054914;28;20127;-70
2023/04/07 05:37:48;;;;;;;19.52;17.48;;;7.70;99.90;;;;;;5054939;28;20076;-70
2023/04/07 05:40:14;;;;;;;18.77;16.75;;;7.80;99.90;;;;;;5071179;28;20036;-70
2023/04/07 05:42:40;;;;;;;19.45;17.40;;;7.80;99.90;;;;;;5071599;28;20042;-70
2023/04/07 05:45:07;;;;;;;21.60;18.85;;;7.70;99.90;;;;;;5073133;28;20032;-70
2023/04/07 05:47:33;;;;;;;20.27;17.13;;;7.70;99.90;;;;;;5058487;28;20040;-70
2023/04/07 05:49:59;;;;;;;19.85;17.75;;;7.70;99.90;;;;;;5075303;28;20072;-71
2023/04/07 05:52:25;;;;;;;18.45;16.55;;;7.80;99.90;;;;;;5075076;28;20040;-69
2023/04/07 05:54:50;;;;;;;19.38;17.02;;;7.80;99.90;;;;;;5075261;28;20094;-70
2023/04/07 05:57:16;;;;;;;19.10;16.75;;;7.70;99.90;;;;;;5041615;28;20622;-69
2023/04/07 05:59:42;;;;;;;23.45;20.23;;;7.70;99.90;;;;;;5074918;28;20040;-69
2023/04/07 06:02:07;;;;;;;21.33;19.00;;;7.80;99.90;;;;;;5075152;28;20040;-69
2023/04/07 06:04:34;;;;;;;22.52;19.75;;;7.80;99.90;;;;;;5075671;28;20048;-70
2023/04/07 06:07:00;;;;;;;21.85;19.50;;;7.80;99.90;;;;;;5058096;28;20052;-69
2023/04/07 06:09:26;;;;;;;23.42;20.15;;;7.80;99.90;;;;;;5058016;28;20049;-70
2023/04/07 06:11:52;;;;;;;23.98;20.95;;;7.80;99.90;;;;;;5074713;28;20074;-69
2023/04/07 06:14:17;;;;;;;23.95;20.35;;;7.80;99.90;;;;;;5074721;28;20127;-70
2023/04/07 06:16:43;;;;;;;21.35;19.05;;;7.80;99.90;;;;;;5058027;28;20040;-69
2023/04/07 06:19:09;;;;;;;25.80;20.30;;;7.80;99.90;;;;;;5057866;28;20049;-70
2023/04/07 06:21:35;;;;;;;22.73;19.80;;;7.80;99.90;;;;;;5074473;28;20036;-70
2023/04/07 06:24:00;;;;;;;22.98;20.45;;;7.80;99.90;;;;;;5057793;28;20051;-70
2023/04/07 06:26:26;;;;;;;24.35;21.15;;;7.90;99.90;;;;;;5057817;28;20054;-70
2023/04/07 06:28:52;;;;;;;23.45;19.60;;;7.90;99.90;;;;;;5057684;28;20036;-70
2023/04/07 06:31:18;;;;;;;26.83;21.65;;;7.90;99.90;;;;;;5057882;28;20049;-70
2023/04/07 06:33:44;;;;;;;23.83;19.73;;;7.90;99.90;;;;;;5074647;28;20406;-70
2023/04/07 06:36:13;;;;;;;21.80;19.15;;;7.90;99.90;;;;;;5057596;28;20508;-70
2023/04/07 06:38:39;;;;;;;22.90;19.20;;;8.00;99.90;;;;;;5040928;28;20512;-70
2023/04/07 06:41:05;;;;;;;20.23;18.08;;;8.00;99.90;;;;;;5057586;28;20041;-70
2023/04/07 06:43:30;;;;;;;23.42;19.80;;;8.00;99.90;;;;;;5074476;28;20043;-70
2023/04/07 06:45:56;;;;;;;25.27;20.67;;;8.00;99.90;;;;;;5074154;28;20416;-70
2023/04/07 06:48:22;;;;;;;22.83;19.42;;;8.00;99.90;;;;;;5057342;28;20040;-70
2023/04/07 06:50:48;;;;;;;24.88;19.73;;;8.10;99.90;;;;;;5073928;28;20033;-70
2023/04/07 06:53:14;;;;;;;23.42;20.90;;;8.10;99.90;;;;;;5074249;28;20457;-70
2023/04/07 06:55:40;;;;;;;21.70;19.00;;;8.10;99.90;;;;;;5056882;28;20539;-70
2023/04/07 06:58:06;;;;;;;24.30;20.25;;;8.20;99.90;;;;;;5057136;28;20048;-70
2023/04/07 07:00:31;;;;;;;22.15;18.80;;;8.20;99.90;;;;;;5057102;28;20043;-70
2023/04/07 07:02:57;;;;;;;21.33;17.02;;;8.20;99.90;;;;;;5073809;28;20040;-70
2023/04/07 07:05:23;;;;;;;21.40;17.92;;;8.20;99.90;;;;;;5057169;28;20044;-70
2023/04/07 07:07:49;;;;;;;23.25;17.70;;;8.20;99.90;;;;;;5057040;28;20049;-69
2023/04/07 07:10:15;;;;;;;21.70;17.58;;;8.20;99.90;;;;;;5057181;28;20068;-70
2023/04/07 07:12:40;;;;;;;21.13;18.50;;;8.30;99.90;;;;;;5057028;28;20504;-70
2023/04/07 07:15:06;;;;;;;21.33;18.90;;;8.30;99.90;;;;;;5073646;28;20036;-70
2023/04/07 07:17:32;;;;;;;22.65;18.80;;;8.30;99.90;;;;;;5074186;28;20427;-69
2023/04/07 07:19:58;;;;;;;21.35;18.63;;;8.40;99.90;;;;;;5056913;28;20058;-70
2023/04/07 07:22:24;;;;;;;21.83;19.42;;;8.40;99.90;;;;;;5073422;28;20032;-70
2023/04/07 07:24:50;;;;;;;20.42;18.23;;;8.40;99.90;;;;;;5073749;28;20044;-69
2023/04/07 07:27:15;;;;;;;21.20;18.10;;;8.40;99.90;;;;;;5056606;28;20042;-70
2023/04/07 07:29:41;;;;;;;21.40;18.90;;;8.50;99.90;;;;;;5056519;28;20040;-70
2023/04/07 07:32:06;;;;;;;23.80;19.75;;;8.60;99.90;;;;;;5056843;28;20052;-70
2023/04/07 07:34:32;;;;;;;23.35;19.73;;;8.60;99.90;;;;;;5056509;28;20496;-70
2023/04/07 07:36:58;;;;;;;22.67;18.77;;;8.60;99.90;;;;;;5072945;28;20051;-70
2023/04/07 07:39:25;;;;;;;24.17;20.48;;;8.60;99.90;;;;;;5072955;28;20029;-70
2023/04/07 07:41:50;;;;;;;22.80;19.25;;;8.70;99.90;;;;;;5056619;28;20105;-70
2023/04/07 07:44:18;;;;;;;20.80;18.55;;;8.70;99.90;;;;;;5074703;28;20478;-70
2023/04/07 07:46:44;;;;;;;24.52;18.63;;;8.60;99.90;;;;;;5056207;28;20083;-70
2023/04/07 07:49:10;;;;;;;19.60;16.42;;;8.70;99.90;;;;;;5056404;28;20072;-70
2023/04/07 07:51:36;;;;;;;17.40;15.60;;;8.80;99.90;;;;;;5057061;28;20493;-70
2023/04/07 07:54:02;;;;;;;19.58;15.52;;;8.80;99.90;;;;;;5072735;28;20036;-70
2023/04/07 07:56:27;;;;;;;19.60;16.38;;;8.70;99.90;;;;;;5072677;28;20040;-70
2023/04/07 07:58:53;;;;;;;17.45;15.50;;;8.70;99.90;;;;;;5056286;28;20132;-70
2023/04/07 08:01:19;;;;;;;17.38;15.52;;;8.80;99.90;;;;;;5055850;28;20040;-70
2023/04/07 08:03:45;;;;;;;17.75;15.85;;;8.80;99.90;;;;;;5055877;28;20071;-70
2023/04/07 08:06:10;;;;;;;19.42;16.85;;;8.80;99.90;;;;;;5072766;28;20040;-69
2023/04/07 08:08:36;;;;;;;18.08;16.20;;;8.90;99.90;;;;;;5055023;28;20514;-69
2023/04/07 08:11:02;;;;;;;17.48;15.57;;;8.90;99.90;;;;;;5055777;28;20040;-69
2023/04/07 08:13:27;;;;;;;16.00;14.20;;;8.90;99.90;;;;;;5072391;28;20048;-71
2023/04/07 08:15:53;;;;;;;15.35;13.75;;;9.00;99.90;;;;;;5055743;28;20040;-69
2023/04/07 08:18:19;;;;;;;16.83;15.02;;;8.90;99.90;;;;;;5055607;28;20045;-69
2023/04/07 08:20:45;;;;;;;18.13;14.82;;;9.00;99.90;;;;;;5055966;28;20040;-69
2023/04/07 08:23:11;;;;;;;16.95;15.13;;;9.00;99.90;;;;;;5055901;28;20063;-69
2023/04/07 08:25:38;;;;;;;16.38;14.68;;;9.00;99.90;;;;;;5072741;28;20072;-69
2023/04/07 08:28:05;;;;;;;16.65;14.95;;;9.10;99.90;;;;;;5038949;28;20400;-69
2023/04/07 08:30:30;;;;;;;17.27;15.48;;;9.10;99.90;;;;;;5072395;28;20044;-69
2023/04/07 08:32:56;;;;;;;17.73;15.57;;;9.10;99.90;;;;;;5072399;28;20390;-69
2023/04/07 08:35:22;;;;;;;15.65;13.93;;;9.20;99.90;;;;;;5055387;28;20051;-69
2023/04/07 08:37:48;;;;;;;18.95;14.07;;;9.20;99.90;;;;;;5055368;28;20123;-69
2023/04/07 08:40:14;;;;;;;14.43;12.93;;;9.30;99.90;;;;;;5071790;28;20040;-69
2023/04/07 08:42:42;;;;;;;14.38;12.88;;;9.40;99.90;;;;;;5072025;28;20070;-69
2023/04/07 08:45:09;;;;;;;15.23;13.43;;;9.40;99.90;;;;;;5055265;28;20040;-69
2023/04/07 08:47:36;;;;;;;15.50;13.73;;;9.50;99.90;;;;;;5055552;28;20045;-69
2023/04/07 08:50:06;;;;;;;14.70;13.25;;;9.50;99.90;;;;;;5071891;28;20041;-69
2023/04/07 08:52:36;;;;;;;14.77;13.38;;;9.60;99.90;;;;;;5071962;28;20048;-69
2023/04/07 08:55:05;;;;;;;14.98;13.48;;;9.70;99.90;;;;;;5038489;28;20040;-69
2023/04/07 08:57:32;;;;;;;14.80;13.27;;;9.70;99.90;;;;;;5071819;28;20046;-70
2023/04/07 09:00:05;;;;;;;14.25;12.73;;;9.80;99.90;;;;;;5038682;28;20063;-70
2023/04/07 09:02:39;;;;;;;14.70;13.27;;;9.80;99.90;;;;;;5055048;28;20378;-69
2023/04/07 09:05:07;;;;;;;14.38;12.93;;;9.80;99.90;;;;;;5072093;28;20550;-69
2023/04/07 09:07:34;;;;;;;14.20;12.80;;;9.80;99.90;;;;;;5055053;28;20094;-69
2023/04/07 09:10:00;;;;;;;14.18;12.75;;;9.80;99.90;;;;;;5038353;28;20154;-69
2023/04/07 09:12:28;;;;;;;15.85;13.93;;;9.80;99.90;;;;;;5071819;28;20050;-69
2023/04/07 09:14:54;;;;;;;15.80;14.10;;;9.70;99.90;;;;;;5072081;28;20109;-69
2023/04/07 09:17:20;;;;;;;15.85;14.35;;;9.70;99.90;;;;;;5071634;28;20047;-70
2023/04/07 09:19:47;;;;;;;15.05;13.35;;;9.70;99.90;;;;;;5074594;28;20491;-70
2023/04/07 09:22:13;;;;;;;15.25;13.75;;;9.80;99.90;;;;;;5059006;28;20119;-70
2023/04/07 09:24:41;;;;;;;15.48;13.88;;;9.80;99.90;;;;;;5076995;28;20115;-70
2023/04/07 09:27:15;;;;;;;16.38;14.65;;;9.80;99.90;;;;;;5075867;28;20089;-69
2023/04/07 09:29:42;;;;;;;14.82;13.32;;;9.90;99.90;;;;;;5075530;28;20037;-69
2023/04/07 09:32:09;;;;;;;14.38;12.02;;;10.00;99.90;;;;;;5075493;28;20040;-69
2023/04/07 09:34:37;;;;;;;13.73;12.27;;;10.00;99.90;;;;;;5075768;28;20086;-69
2023/04/07 09:37:04;;;;;;;12.32;11.00;;;10.00;99.90;;;;;;5075594;28;20043;-69
2023/04/07 09:39:31;;;;;;;12.50;11.25;;;10.00;99.90;;;;;;5075409;28;20158;-69
2023/04/07 09:41:56;;;;;;;12.50;11.20;;;10.00;99.90;;;;;;5075397;28;20041;-69
2023/04/07 09:44:24;;;;;;;12.15;10.95;;;10.00;99.90;;;;;;5058572;28;20051;-69
2023/04/07 09:46:56;;;;;;;11.48;10.27;;;10.00;99.90;;;;;;5058554;28;20041;-69
2023/04/07 09:49:25;;;;;;;11.23;10.00;;;10.10;99.90;;;;;;5075369;28;20041;-69
2023/04/07 09:51:56;;;;;;;9.68;8.68;;;10.00;99.90;;;;;;5058429;28;20049;-69
2023/04/07 09:54:36;;;;;;;11.27;10.05;;;10.00;99.90;;;;;;5058509;28;20075;-72
2023/04/07 09:57:03;;;;;;;9.98;8.93;;;10.10;99.90;;;;;;5058407;28;20493;-72
2023/04/07 09:59:31;;;;;;;11.00;7.88;;;10.10;99.90;;;;;;5075044;28;20036;-72
2023/04/07 10:01:57;;;;;;;10.27;8.50;;;10.00;99.90;;;;;;5075181;28;20075;-72
2023/04/07 10:04:24;;;;;;;9.57;8.55;;;10.00;99.90;;;;;;5058657;28;20119;-72
2023/04/07 10:06:52;;;;;;;9.23;8.15;;;10.10;99.90;;;;;;5058170;28;20079;-69
2023/04/07 10:09:17;;;;;;;7.95;7.15;;;10.10;99.90;;;;;;5058181;28;20048;-69
2023/04/07 10:11:44;;;;;;;8.55;7.20;;;10.00;99.90;;;;;;5074975;28;20127;-69
2023/04/07 10:14:10;;;;;;;7.70;6.90;;;10.10;99.90;;;;;;5058052;28;20048;-69
2023/04/07 10:16:42;;;;;;;7.95;7.10;;;10.10;99.90;;;;;;5074806;28;20044;-69
2023/04/07 10:19:08;;;;;;;8.70;7.80;;;10.00;99.90;;;;;;5057890;28;20569;-69
2023/04/07 10:21:38;;;;;;;8.48;7.57;;;10.10;99.90;;;;;;5074504;28;20063;-69
2023/04/07 10:24:19;;;;;;;9.10;7.50;;;10.10;99.90;;;;;;5041233;28;20036;-69
2023/04/07 10:26:50;;;;;;;8.60;7.70;;;10.10;99.90;;;;;;5074837;28;20066;-69
2023/04/07 10:29:18;;;;;;;8.73;6.78;;;10.10;99.90;;;;;;5057890;28;20094;-69
2023/04/07 10:31:45;;;;;;;7.63;6.60;;;10.10;99.90;;;;;;5057084;28;20034;-70
2023/04/07 10:34:11;;;;;;;6.72;5.85;;;10.20;99.90;;;;;;5057654;28;20519;-69
2023/04/07 10:37:21;;;;;;;8.02;6.88;;;10.20;99.90;;;;;;5074308;28;20049;-69
2023/04/07 10:40:10;;;;;;;7.20;6.20;;;10.30;99.90;;;;;;5075272;28;20058;-70
2023/04/07 10:42:38;;;;;;;7.38;6.28;;;10.30;99.90;;;;;;5047146;28;20097;-69
2023/04/07 10:45:05;;;;;;;6.28;5.65;;;10.40;99.90;;;;;;5074179;28;20489;-69
2023/04/07 10:47:31;;;;;;;6.13;5.32;;;10.40;99.90;;;;;;5074123;28;20040;-68
2023/04/07 10:50:17;;;;;;;6.10;5.50;;;10.30;99.90;;;;;;5057266;28;20036;-69
2023/04/07 10:52:45;;;;;;;6.88;5.28;;;10.40;99.90;;;;;;5057376;28;20086;-69
2023/04/07 10:55:37;;;;;;;5.70;5.00;;;10.50;99.90;;;;;;5057301;28;20552;-68
2023/04/07 10:58:19;;;;;;;6.28;5.38;;;10.60;99.90;;;;;;5049012;28;20061;-68
2023/04/07 11:01:00;;;;;;;6.20;5.32;;;10.70;99.90;;;;;;5074070;28;20123;-69
2023/04/07 11:03:27;;;;;;;5.28;4.60;;;10.80;99.90;;;;;;5057113;28;20090;-69
2023/04/07 11:06:07;;;;;;;5.43;4.93;;;10.80;99.90;;;;;;5057273;28;20123;-68
2023/04/07 11:08:33;;;;;;;4.90;4.40;;;10.80;99.90;;;;;;5073714;28;20455;-68
2023/04/07 11:10:59;;;;;;;5.63;5.00;;;10.70;99.90;;;;;;5056892;28;20037;-69
2023/04/07 11:13:26;;;;;;;6.32;5.13;;;10.70;99.90;;;;;;5073606;28;20078;-68
2023/04/07 11:15:52;;;;;;;5.53;4.95;;;10.60;99.90;;;;;;5073534;28;20124;-68
2023/04/07 11:18:20;;;;;;;6.28;5.32;;;10.50;99.90;;;;;;5056886;28;20132;-68
2023/04/07 11:20:52;;;;;;;6.25;5.60;;;10.50;99.90;;;;;;5073388;28;20487;-69
2023/04/07 11:23:19;;;;;;;7.30;5.63;;;10.50;99.90;;;;;;5057073;28;20036;-68
2023/04/07 11:25:47;;;;;;;6.18;5.50;;;10.50;99.90;;;;;;5056653;28;20382;-68
2023/04/07 11:28:13;;;;;;;6.15;5.15;;;10.50;99.90;;;;;;5056681;28;20101;-68
2023/04/07 11:30:45;;;;;;;6.30;5.45;;;10.40;99.90;;;;;;5056796;28;20044;-69
2023/04/07 11:33:16;;;;;;;5.90;5.30;;;10.50;99.90;;;;;;5073631;28;20071;-69
2023/04/07 11:35:55;;;;;;;7.10;5.97;;;10.40;99.90;;;;;;5073546;28;20504;-69
2023/04/07 11:38:22;;;;;;;7.90;5.82;;;10.40;99.90;;;;;;5056484;28;20500;-68
2023/04/07 11:40:47;;;;;;;7.43;5.47;;;10.50;99.90;;;;;;5073156;28;20037;-69
2023/04/07 11:43:18;;;;;;;8.60;6.47;;;10.50;99.90;;;;;;5056280;28;20044;-69
2023/04/07 11:45:44;;;;;;;7.03;6.05;;;10.50;99.90;;;;;;5073023;28;20075;-70
2023/04/07 11:48:29;;;;;;;7.50;5.80;;;10.50;99.90;;;;;;5056278;28;20078;-67
2023/04/07 11:50:55;;;;;;;6.72;5.40;;;10.40;99.90;;;;;;5056154;28;20041;-67
2023/04/07 11:53:29;;;;;;;8.02;6.25;;;10.40;99.90;;;;;;5056413;28;20131;-68
2023/04/07 11:56:15;;;;;;;7.00;6.30;;;10.40;99.90;;;;;;5056106;28;20124;-67
2023/04/07 11:58:53;;;;;;;7.40;6.47;;;10.50;99.90;;;;;;5055958;28;20048;-67
2023/04/07 12:01:20;;;;;;;7.88;6.93;;;10.50;99.90;;;;;;5055811;28;20028;-67
2023/04/07 12:03:57;;;;;;;6.78;5.80;;;10.40;99.90;;;;;;5039466;28;20495;-68
2023/04/07 12:06:33;;;;;;;6.40;5.80;;;10.50;99.90;;;;;;5072574;28;20032;-67
2023/04/07 12:09:00;;;;;;;9.02;6.57;;;10.40;99.90;;;;;;5055854;28;20119;-67
2023/04/07 12:11:26;;;;;;;7.60;6.32;;;10.40;99.90;;;;;;5056350;28;20106;-68
2023/04/07 12:13:52;;;;;;;9.18;6.78;;;10.40;99.90;;;;;;5056277;28;20523;-70
2023/04/07 12:16:18;;;;;;;7.93;6.57;;;10.40;99.90;;;;;;5056144;28;20037;-70
2023/04/07 12:18:44;;;;;;;9.32;6.90;;;10.40;99.90;;;;;;5055605;28;20435;-70
2023/04/07 12:21:09;;;;;;;8.57;7.20;;;10.40;99.90;;;;;;5072544;28;20089;-67
2023/04/07 12:23:35;;;;;;;9.07;6.60;;;10.40;99.90;;;;;;5072262;28;20404;-68
2023/04/07 12:26:01;;;;;;;9.23;7.32;;;10.40;99.90;;;;;;5073032;28;20044;-67
2023/04/07 12:28:27;;;;;;;7.78;6.97;;;10.40;99.90;;;;;;5072228;28;20036;-67
2023/04/07 12:30:53;;;;;;;8.07;7.28;;;10.40;99.90;;;;;;5055514;28;20101;-67
2023/04/07 12:33:18;;;;;;;8.90;7.32;;;10.50;99.90;;;;;;5055646;28;20197;-67
2023/04/07 12:35:44;;;;;;;8.73;7.47;;;10.50;99.90;;;;;;5072050;28;20505;-68
2023/04/07 12:38:10;;;;;;;7.88;7.07;;;10.60;99.90;;;;;;5072045;28;20119;-68
2023/04/07 12:40:36;;;;;;;9.27;7.45;;;10.60;99.90;;;;;;5071908;28;20090;-67